sensor_id;sensor_type;location;lat;lon;timestamp;P1;durP1;ratioP1;P2;durP2;ratioP2
37495;SDS011;23346;52.088;4.746;2022-08-20T00:02:20;25.90;;;11.57;;
37495;SDS011;23346;52.088;4.746;2022-08-20T00:04:47;26.45;;;10.98;;
37495;SDS011;23346;52.088;4.746;2022-08-20T00:07:13;18.73;;;10.38;;
37495;SDS011;23346;52.088;4.746;2022-08-20T00:09:41;21.00;;;10.20;;
37495;SDS011;23346;52.088;4.746;2022-08-20T00:12:08;28.35;;;11.07;;
37495;SDS011;23346;52.088;4.746;2022-08-20T00:14:34;19.83;;;10.77;;
37495;SDS011;23346;52.088;4.746;2022-08-20T00:17:01;23.45;;;15.13;;
37495;SDS011;23346;52.088;4.746;2022-08-20T00:19:28;26.45;;;16.92;;
37495;SDS011;23346;52.088;4.746;2022-08-20T00:21:54;30.27;;;16.15;;
37495;SDS011;23346;52.088;4.746;2022-08-20T00:24:21;26.77;;;15.93;;
37495;SDS011;23346;52.088;4.746;2022-08-20T00:26:48;35.85;;;17.55;;
37495;SDS011;23346;52.088;4.746;2022-08-20T00:29:14;29.35;;;19.38;;
37495;SDS011;23346;52.088;4.746;2022-08-20T00:31:40;27.95;;;18.52;;
37495;SDS011;23346;52.088;4.746;2022-08-20T00:34:06;29.42;;;20.92;;
37495;SDS011;23346;52.088;4.746;2022-08-20T00:36:34;29.58;;;22.17;;
37495;SDS011;23346;52.088;4.746;2022-08-20T00:39:00;31.40;;;16.90;;
37495;SDS011;23346;52.088;4.746;2022-08-20T00:41:29;29.25;;;14.82;;
37495;SDS011;23346;52.088;4.746;2022-08-20T00:44:06;32.30;;;15.63;;
37495;SDS011;23346;52.088;4.746;2022-08-20T00:46:33;32.85;;;15.07;;
37495;SDS011;23346;52.088;4.746;2022-08-20T00:49:00;23.20;;;14.98;;
37495;SDS011;23346;52.088;4.746;2022-08-20T00:51:35;25.00;;;14.13;;
37495;SDS011;23346;52.088;4.746;2022-08-20T00:56:45;15.85;;;11.02;;
37495;SDS011;23346;52.088;4.746;2022-08-20T00:59:13;20.52;;;11.68;;
37495;SDS011;23346;52.088;4.746;2022-08-20T01:01:40;24.98;;;11.73;;
37495;SDS011;23346;52.088;4.746;2022-08-20T01:04:07;25.15;;;11.77;;
37495;SDS011;23346;52.088;4.746;2022-08-20T01:06:35;18.42;;;12.30;;
37495;SDS011;23346;52.088;4.746;2022-08-20T01:09:01;21.00;;;11.57;;
37495;SDS011;23346;52.088;4.746;2022-08-20T01:11:28;25.30;;;11.48;;
37495;SDS011;23346;52.088;4.746;2022-08-20T01:13:58;20.48;;;12.40;;
37495;SDS011;23346;52.088;4.746;2022-08-20T01:16:26;23.75;;;12.27;;
37495;SDS011;23346;52.088;4.746;2022-08-20T01:18:55;25.23;;;11.88;;
37495;SDS011;23346;52.088;4.746;2022-08-20T01:21:22;30.10;;;11.73;;
37495;SDS011;23346;52.088;4.746;2022-08-20T01:24:07;29.95;;;13.07;;
37495;SDS011;23346;52.088;4.746;2022-08-20T01:26:37;22.10;;;11.02;;
37495;SDS011;23346;52.088;4.746;2022-08-20T01:29:11;23.38;;;11.10;;
37495;SDS011;23346;52.088;4.746;2022-08-20T01:31:39;21.58;;;11.25;;
37495;SDS011;23346;52.088;4.746;2022-08-20T01:34:07;24.20;;;11.80;;
37495;SDS011;23346;52.088;4.746;2022-08-20T01:36:39;23.55;;;10.93;;
37495;SDS011;23346;52.088;4.746;2022-08-20T01:39:20;20.67;;;10.75;;
37495;SDS011;23346;52.088;4.746;2022-08-20T01:44:12;24.13;;;11.18;;
37495;SDS011;23346;52.088;4.746;2022-08-20T01:46:39;22.83;;;11.48;;
37495;SDS011;23346;52.088;4.746;2022-08-20T01:49:16;20.88;;;11.85;;
37495;SDS011;23346;52.088;4.746;2022-08-20T01:51:44;22.77;;;12.20;;
37495;SDS011;23346;52.088;4.746;2022-08-20T01:54:10;21.77;;;12.23;;
37495;SDS011;23346;52.088;4.746;2022-08-20T01:56:49;27.50;;;12.98;;
37495;SDS011;23346;52.088;4.746;2022-08-20T01:59:15;25.35;;;12.52;;
37495;SDS011;23346;52.088;4.746;2022-08-20T02:01:41;19.92;;;11.40;;
37495;SDS011;23346;52.088;4.746;2022-08-20T02:04:07;18.90;;;12.02;;
37495;SDS011;23346;52.088;4.746;2022-08-20T02:06:36;25.23;;;11.32;;
37495;SDS011;23346;52.088;4.746;2022-08-20T02:09:05;29.50;;;12.23;;
37495;SDS011;23346;52.088;4.746;2022-08-20T02:11:31;22.30;;;11.10;;
37495;SDS011;23346;52.088;4.746;2022-08-20T02:13:58;20.23;;;11.30;;
37495;SDS011;23346;52.088;4.746;2022-08-20T02:16:26;21.70;;;11.23;;
37495;SDS011;23346;52.088;4.746;2022-08-20T02:18:55;22.48;;;10.52;;
37495;SDS011;23346;52.088;4.746;2022-08-20T02:21:22;23.63;;;10.57;;
37495;SDS011;23346;52.088;4.746;2022-08-20T02:23:49;18.25;;;10.32;;
37495;SDS011;23346;52.088;4.746;2022-08-20T02:26:15;18.10;;;9.80;;
37495;SDS011;23346;52.088;4.746;2022-08-20T02:28:44;19.75;;;10.00;;
37495;SDS011;23346;52.088;4.746;2022-08-20T02:31:13;22.35;;;9.65;;
37495;SDS011;23346;52.088;4.746;2022-08-20T02:33:39;19.35;;;9.15;;
37495;SDS011;23346;52.088;4.746;2022-08-20T02:36:05;20.55;;;9.27;;
37495;SDS011;23346;52.088;4.746;2022-08-20T02:38:32;18.23;;;9.07;;
37495;SDS011;23346;52.088;4.746;2022-08-20T02:40:59;19.25;;;9.02;;
37495;SDS011;23346;52.088;4.746;2022-08-20T02:43:26;20.92;;;8.82;;
37495;SDS011;23346;52.088;4.746;2022-08-20T02:45:53;16.25;;;8.85;;
37495;SDS011;23346;52.088;4.746;2022-08-20T02:48:20;13.20;;;9.40;;
37495;SDS011;23346;52.088;4.746;2022-08-20T02:50:57;18.75;;;10.77;;
37495;SDS011;23346;52.088;4.746;2022-08-20T02:53:26;17.60;;;10.07;;
37495;SDS011;23346;52.088;4.746;2022-08-20T02:55:52;20.05;;;10.98;;
37495;SDS011;23346;52.088;4.746;2022-08-20T02:58:19;24.80;;;11.73;;
37495;SDS011;23346;52.088;4.746;2022-08-20T03:00:45;36.30;;;12.32;;
37495;SDS011;23346;52.088;4.746;2022-08-20T03:03:11;21.73;;;11.73;;
37495;SDS011;23346;52.088;4.746;2022-08-20T03:05:39;25.15;;;11.15;;
37495;SDS011;23346;52.088;4.746;2022-08-20T03:08:07;26.88;;;12.30;;
37495;SDS011;23346;52.088;4.746;2022-08-20T03:10:34;33.15;;;13.75;;
37495;SDS011;23346;52.088;4.746;2022-08-20T03:13:02;26.13;;;14.43;;
37495;SDS011;23346;52.088;4.746;2022-08-20T03:15:29;25.03;;;15.53;;
37495;SDS011;23346;52.088;4.746;2022-08-20T03:17:56;28.83;;;15.85;;
37495;SDS011;23346;52.088;4.746;2022-08-20T03:20:22;35.08;;;16.73;;
37495;SDS011;23346;52.088;4.746;2022-08-20T03:22:48;28.30;;;16.95;;
37495;SDS011;23346;52.088;4.746;2022-08-20T03:25:15;31.50;;;15.52;;
37495;SDS011;23346;52.088;4.746;2022-08-20T03:27:41;31.92;;;16.60;;
37495;SDS011;23346;52.088;4.746;2022-08-20T03:30:08;40.83;;;17.80;;
37495;SDS011;23346;52.088;4.746;2022-08-20T03:32:35;32.53;;;17.60;;
37495;SDS011;23346;52.088;4.746;2022-08-20T03:35:02;38.28;;;17.88;;
37495;SDS011;23346;52.088;4.746;2022-08-20T03:37:29;33.42;;;17.23;;
37495;SDS011;23346;52.088;4.746;2022-08-20T03:39:56;30.63;;;16.70;;
37495;SDS011;23346;52.088;4.746;2022-08-20T03:42:22;40.70;;;16.73;;
37495;SDS011;23346;52.088;4.746;2022-08-20T03:44:48;34.75;;;15.80;;
37495;SDS011;23346;52.088;4.746;2022-08-20T03:47:14;33.65;;;16.75;;
37495;SDS011;23346;52.088;4.746;2022-08-20T03:49:39;36.47;;;17.67;;
37495;SDS011;23346;52.088;4.746;2022-08-20T03:52:06;36.47;;;17.60;;
37495;SDS011;23346;52.088;4.746;2022-08-20T03:54:32;38.00;;;16.67;;
37495;SDS011;23346;52.088;4.746;2022-08-20T03:56:58;36.20;;;17.40;;
37495;SDS011;23346;52.088;4.746;2022-08-20T03:59:24;33.45;;;16.55;;
37495;SDS011;23346;52.088;4.746;2022-08-20T04:01:51;36.10;;;16.30;;
37495;SDS011;23346;52.088;4.746;2022-08-20T04:04:17;38.43;;;17.40;;
37495;SDS011;23346;52.088;4.746;2022-08-20T04:06:44;34.57;;;17.77;;
37495;SDS011;23346;52.088;4.746;2022-08-20T04:09:11;40.23;;;19.03;;
37495;SDS011;23346;52.088;4.746;2022-08-20T04:11:37;41.50;;;18.20;;
37495;SDS011;23346;52.088;4.746;2022-08-20T04:14:03;45.90;;;17.47;;
37495;SDS011;23346;52.088;4.746;2022-08-20T04:16:29;36.10;;;18.92;;
37495;SDS011;23346;52.088;4.746;2022-08-20T04:18:56;35.97;;;16.57;;
37495;SDS011;23346;52.088;4.746;2022-08-20T04:21:23;41.87;;;17.77;;
37495;SDS011;23346;52.088;4.746;2022-08-20T04:23:49;43.33;;;18.20;;
37495;SDS011;23346;52.088;4.746;2022-08-20T04:26:16;43.07;;;19.10;;
37495;SDS011;23346;52.088;4.746;2022-08-20T04:28:43;40.03;;;19.20;;
37495;SDS011;23346;52.088;4.746;2022-08-20T04:31:09;49.17;;;20.63;;
37495;SDS011;23346;52.088;4.746;2022-08-20T04:33:38;52.90;;;20.47;;
37495;SDS011;23346;52.088;4.746;2022-08-20T04:36:06;56.70;;;20.57;;
37495;SDS011;23346;52.088;4.746;2022-08-20T04:38:32;45.43;;;19.67;;
37495;SDS011;23346;52.088;4.746;2022-08-20T04:40:58;44.37;;;20.37;;
37495;SDS011;23346;52.088;4.746;2022-08-20T04:43:29;52.90;;;21.70;;
37495;SDS011;23346;52.088;4.746;2022-08-20T04:45:56;44.30;;;21.23;;
37495;SDS011;23346;52.088;4.746;2022-08-20T04:48:23;48.13;;;21.27;;
37495;SDS011;23346;52.088;4.746;2022-08-20T04:50:51;64.80;;;22.40;;
37495;SDS011;23346;52.088;4.746;2022-08-20T04:53:18;59.43;;;24.47;;
37495;SDS011;23346;52.088;4.746;2022-08-20T04:55:45;58.07;;;24.10;;
37495;SDS011;23346;52.088;4.746;2022-08-20T04:58:16;59.53;;;24.90;;
37495;SDS011;23346;52.088;4.746;2022-08-20T05:00:49;53.90;;;24.40;;
37495;SDS011;23346;52.088;4.746;2022-08-20T05:03:16;62.97;;;27.07;;
37495;SDS011;23346;52.088;4.746;2022-08-20T05:05:43;60.37;;;25.43;;
37495;SDS011;23346;52.088;4.746;2022-08-20T05:08:09;70.87;;;27.03;;
37495;SDS011;23346;52.088;4.746;2022-08-20T05:10:36;60.70;;;26.73;;
37495;SDS011;23346;52.088;4.746;2022-08-20T05:13:03;60.13;;;25.33;;
37495;SDS011;23346;52.088;4.746;2022-08-20T05:15:30;60.10;;;24.47;;
37495;SDS011;23346;52.088;4.746;2022-08-20T05:17:58;54.30;;;23.87;;
37495;SDS011;23346;52.088;4.746;2022-08-20T05:20:29;58.10;;;23.40;;
37495;SDS011;23346;52.088;4.746;2022-08-20T05:22:59;54.43;;;24.40;;
37495;SDS011;23346;52.088;4.746;2022-08-20T05:25:25;53.60;;;23.70;;
37495;SDS011;23346;52.088;4.746;2022-08-20T05:27:55;58.90;;;23.00;;
37495;SDS011;23346;52.088;4.746;2022-08-20T05:30:24;53.87;;;23.30;;
37495;SDS011;23346;52.088;4.746;2022-08-20T05:32:50;53.80;;;23.67;;
37495;SDS011;23346;52.088;4.746;2022-08-20T05:35:17;59.03;;;23.00;;
37495;SDS011;23346;52.088;4.746;2022-08-20T05:37:43;57.73;;;24.33;;
37495;SDS011;23346;52.088;4.746;2022-08-20T05:40:10;50.27;;;23.67;;
37495;SDS011;23346;52.088;4.746;2022-08-20T05:42:38;58.67;;;23.53;;
37495;SDS011;23346;52.088;4.746;2022-08-20T05:45:04;54.40;;;24.90;;
37495;SDS011;23346;52.088;4.746;2022-08-20T05:47:31;57.15;;;24.27;;
37495;SDS011;23346;52.088;4.746;2022-08-20T05:49:57;65.17;;;25.47;;
37495;SDS011;23346;52.088;4.746;2022-08-20T05:52:23;55.40;;;25.75;;
37495;SDS011;23346;52.088;4.746;2022-08-20T05:54:49;70.83;;;26.40;;
37495;SDS011;23346;52.088;4.746;2022-08-20T05:57:17;66.10;;;26.90;;
37495;SDS011;23346;52.088;4.746;2022-08-20T05:59:43;63.80;;;26.40;;
37495;SDS011;23346;52.088;4.746;2022-08-20T06:02:09;70.80;;;29.30;;
37495;SDS011;23346;52.088;4.746;2022-08-20T06:04:54;71.03;;;29.00;;
37495;SDS011;23346;52.088;4.746;2022-08-20T06:07:20;57.45;;;27.75;;
37495;SDS011;23346;52.088;4.746;2022-08-20T06:09:46;68.57;;;27.75;;
37495;SDS011;23346;52.088;4.746;2022-08-20T06:12:12;69.47;;;29.58;;
37495;SDS011;23346;52.088;4.746;2022-08-20T06:14:39;78.25;;;28.60;;
37495;SDS011;23346;52.088;4.746;2022-08-20T06:17:09;67.15;;;30.60;;
37495;SDS011;23346;52.088;4.746;2022-08-20T06:19:37;63.08;;;27.92;;
37495;SDS011;23346;52.088;4.746;2022-08-20T06:22:03;62.42;;;29.27;;
37495;SDS011;23346;52.088;4.746;2022-08-20T06:24:30;69.05;;;29.02;;
37495;SDS011;23346;52.088;4.746;2022-08-20T06:26:57;65.18;;;28.80;;
37495;SDS011;23346;52.088;4.746;2022-08-20T06:29:24;53.67;;;27.42;;
37495;SDS011;23346;52.088;4.746;2022-08-20T06:31:50;55.92;;;26.33;;
37495;SDS011;23346;52.088;4.746;2022-08-20T06:34:16;48.13;;;23.70;;
37495;SDS011;23346;52.088;4.746;2022-08-20T06:36:43;47.63;;;23.63;;
37495;SDS011;23346;52.088;4.746;2022-08-20T06:39:10;42.22;;;18.90;;
37495;SDS011;23346;52.088;4.746;2022-08-20T06:41:37;41.45;;;19.27;;
37495;SDS011;23346;52.088;4.746;2022-08-20T06:44:03;36.88;;;18.88;;
37495;SDS011;23346;52.088;4.746;2022-08-20T06:46:30;30.17;;;15.23;;
37495;SDS011;23346;52.088;4.746;2022-08-20T06:48:57;19.88;;;10.85;;
37495;SDS011;23346;52.088;4.746;2022-08-20T06:51:23;22.90;;;8.70;;
37495;SDS011;23346;52.088;4.746;2022-08-20T06:53:48;15.75;;;5.22;;
37495;SDS011;23346;52.088;4.746;2022-08-20T06:56:15;14.15;;;4.13;;
37495;SDS011;23346;52.088;4.746;2022-08-20T06:58:40;12.63;;;2.85;;
37495;SDS011;23346;52.088;4.746;2022-08-20T07:01:09;16.48;;;3.38;;
37495;SDS011;23346;52.088;4.746;2022-08-20T07:03:35;11.45;;;2.72;;
37495;SDS011;23346;52.088;4.746;2022-08-20T07:06:02;15.73;;;2.72;;
37495;SDS011;23346;52.088;4.746;2022-08-20T07:08:28;11.27;;;1.98;;
37495;SDS011;23346;52.088;4.746;2022-08-20T07:10:54;10.98;;;2.08;;
37495;SDS011;23346;52.088;4.746;2022-08-20T07:13:20;9.63;;;2.20;;
37495;SDS011;23346;52.088;4.746;2022-08-20T07:15:46;13.02;;;2.30;;
37495;SDS011;23346;52.088;4.746;2022-08-20T07:18:14;23.42;;;2.13;;
37495;SDS011;23346;52.088;4.746;2022-08-20T07:20:40;18.77;;;2.28;;
37495;SDS011;23346;52.088;4.746;2022-08-20T07:23:06;9.05;;;1.50;;
37495;SDS011;23346;52.088;4.746;2022-08-20T07:25:34;12.98;;;2.22;;
37495;SDS011;23346;52.088;4.746;2022-08-20T07:28:04;17.10;;;2.40;;
37495;SDS011;23346;52.088;4.746;2022-08-20T07:30:31;14.25;;;1.80;;
37495;SDS011;23346;52.088;4.746;2022-08-20T07:33:15;11.60;;;1.85;;
37495;SDS011;23346;52.088;4.746;2022-08-20T07:35:42;9.82;;;1.85;;
37495;SDS011;23346;52.088;4.746;2022-08-20T07:38:18;10.23;;;1.90;;
37495;SDS011;23346;52.088;4.746;2022-08-20T07:40:51;12.65;;;1.67;;
37495;SDS011;23346;52.088;4.746;2022-08-20T07:43:17;11.70;;;1.75;;
37495;SDS011;23346;52.088;4.746;2022-08-20T07:45:45;14.20;;;2.30;;
37495;SDS011;23346;52.088;4.746;2022-08-20T07:48:12;9.60;;;1.50;;
37495;SDS011;23346;52.088;4.746;2022-08-20T07:50:38;8.00;;;1.67;;
37495;SDS011;23346;52.088;4.746;2022-08-20T07:53:05;12.93;;;1.85;;
37495;SDS011;23346;52.088;4.746;2022-08-20T07:55:31;8.35;;;1.77;;
37495;SDS011;23346;52.088;4.746;2022-08-20T07:58:00;12.82;;;2.78;;
37495;SDS011;23346;52.088;4.746;2022-08-20T08:00:30;7.47;;;1.50;;
37495;SDS011;23346;52.088;4.746;2022-08-20T08:02:56;14.40;;;1.83;;
37495;SDS011;23346;52.088;4.746;2022-08-20T08:05:23;6.45;;;1.25;;
37495;SDS011;23346;52.088;4.746;2022-08-20T08:07:49;8.43;;;1.10;;
37495;SDS011;23346;52.088;4.746;2022-08-20T08:10:17;10.38;;;1.48;;
37495;SDS011;23346;52.088;4.746;2022-08-20T08:12:45;8.98;;;1.40;;
37495;SDS011;23346;52.088;4.746;2022-08-20T08:15:14;12.43;;;1.55;;
37495;SDS011;23346;52.088;4.746;2022-08-20T08:17:42;6.03;;;1.23;;
37495;SDS011;23346;52.088;4.746;2022-08-20T08:20:09;11.95;;;1.65;;
37495;SDS011;23346;52.088;4.746;2022-08-20T08:22:36;9.85;;;1.35;;
37495;SDS011;23346;52.088;4.746;2022-08-20T08:25:06;7.18;;;1.25;;
37495;SDS011;23346;52.088;4.746;2022-08-20T08:27:33;10.35;;;1.50;;
37495;SDS011;23346;52.088;4.746;2022-08-20T08:29:59;9.13;;;1.00;;
37495;SDS011;23346;52.088;4.746;2022-08-20T08:32:26;8.77;;;1.35;;
37495;SDS011;23346;52.088;4.746;2022-08-20T08:34:52;7.10;;;1.27;;
37495;SDS011;23346;52.088;4.746;2022-08-20T08:37:18;6.32;;;1.67;;
37495;SDS011;23346;52.088;4.746;2022-08-20T08:39:44;11.32;;;1.52;;
37495;SDS011;23346;52.088;4.746;2022-08-20T08:42:22;8.88;;;1.20;;
37495;SDS011;23346;52.088;4.746;2022-08-20T08:44:50;7.60;;;1.70;;
37495;SDS011;23346;52.088;4.746;2022-08-20T08:47:21;8.52;;;2.13;;
37495;SDS011;23346;52.088;4.746;2022-08-20T08:49:49;7.75;;;1.38;;
37495;SDS011;23346;52.088;4.746;2022-08-20T08:52:19;8.75;;;1.25;;
37495;SDS011;23346;52.088;4.746;2022-08-20T08:54:52;7.20;;;1.13;;
37495;SDS011;23346;52.088;4.746;2022-08-20T09:03:02;8.60;;;1.40;;
37495;SDS011;23346;52.088;4.746;2022-08-20T09:08:11;9.30;;;1.25;;
37495;SDS011;23346;52.088;4.746;2022-08-20T09:10:40;8.82;;;1.00;;
37495;SDS011;23346;52.088;4.746;2022-08-20T09:13:09;4.35;;;1.05;;
37495;SDS011;23346;52.088;4.746;2022-08-20T09:15:43;11.00;;;1.50;;
37495;SDS011;23346;52.088;4.746;2022-08-20T09:18:10;11.75;;;1.63;;
37495;SDS011;23346;52.088;4.746;2022-08-20T09:20:36;10.02;;;1.40;;
37495;SDS011;23346;52.088;4.746;2022-08-20T09:23:05;12.82;;;1.95;;
37495;SDS011;23346;52.088;4.746;2022-08-20T09:25:31;6.35;;;1.17;;
37495;SDS011;23346;52.088;4.746;2022-08-20T09:27:57;6.30;;;1.27;;
37495;SDS011;23346;52.088;4.746;2022-08-20T09:30:27;6.57;;;1.17;;
37495;SDS011;23346;52.088;4.746;2022-08-20T09:32:53;9.05;;;1.20;;
37495;SDS011;23346;52.088;4.746;2022-08-20T09:35:19;8.63;;;1.38;;
37495;SDS011;23346;52.088;4.746;2022-08-20T09:37:45;7.97;;;1.42;;
37495;SDS011;23346;52.088;4.746;2022-08-20T09:40:14;7.72;;;1.17;;
37495;SDS011;23346;52.088;4.746;2022-08-20T09:42:40;5.93;;;1.33;;
37495;SDS011;23346;52.088;4.746;2022-08-20T09:45:06;11.82;;;1.80;;
37495;SDS011;23346;52.088;4.746;2022-08-20T09:47:32;7.63;;;2.15;;
37495;SDS011;23346;52.088;4.746;2022-08-20T09:49:58;9.05;;;1.45;;
37495;SDS011;23346;52.088;4.746;2022-08-20T09:54:51;10.23;;;1.52;;
37495;SDS011;23346;52.088;4.746;2022-08-20T09:57:19;7.82;;;1.38;;
37495;SDS011;23346;52.088;4.746;2022-08-20T09:59:47;7.70;;;1.23;;
37495;SDS011;23346;52.088;4.746;2022-08-20T10:02:18;8.45;;;1.30;;
37495;SDS011;23346;52.088;4.746;2022-08-20T10:04:44;6.65;;;1.25;;
37495;SDS011;23346;52.088;4.746;2022-08-20T10:07:13;9.18;;;1.80;;
37495;SDS011;23346;52.088;4.746;2022-08-20T10:09:39;11.38;;;1.23;;
37495;SDS011;23346;52.088;4.746;2022-08-20T10:12:05;6.25;;;1.30;;
37495;SDS011;23346;52.088;4.746;2022-08-20T10:14:32;5.80;;;1.15;;
37495;SDS011;23346;52.088;4.746;2022-08-20T10:17:05;10.57;;;1.42;;
37495;SDS011;23346;52.088;4.746;2022-08-20T10:19:31;7.80;;;1.40;;
37495;SDS011;23346;52.088;4.746;2022-08-20T10:21:57;7.90;;;1.17;;
37495;SDS011;23346;52.088;4.746;2022-08-20T10:24:31;7.72;;;0.95;;
37495;SDS011;23346;52.088;4.746;2022-08-20T10:27:03;8.40;;;1.67;;
37495;SDS011;23346;52.088;4.746;2022-08-20T10:29:29;10.18;;;1.65;;
37495;SDS011;23346;52.088;4.746;2022-08-20T10:31:56;7.90;;;1.60;;
37495;SDS011;23346;52.088;4.746;2022-08-20T10:34:23;54.75;;;4.75;;
37495;SDS011;23346;52.088;4.746;2022-08-20T10:36:54;7.07;;;1.25;;
37495;SDS011;23346;52.088;4.746;2022-08-20T10:39:20;8.35;;;1.50;;
37495;SDS011;23346;52.088;4.746;2022-08-20T10:41:49;7.68;;;1.58;;
37495;SDS011;23346;52.088;4.746;2022-08-20T10:44:15;9.73;;;1.35;;
37495;SDS011;23346;52.088;4.746;2022-08-20T10:46:41;6.43;;;1.13;;
37495;SDS011;23346;52.088;4.746;2022-08-20T10:49:09;5.20;;;1.60;;
37495;SDS011;23346;52.088;4.746;2022-08-20T10:51:38;11.48;;;1.75;;
37495;SDS011;23346;52.088;4.746;2022-08-20T10:54:04;11.20;;;2.00;;
37495;SDS011;23346;52.088;4.746;2022-08-20T10:56:35;7.25;;;1.33;;
37495;SDS011;23346;52.088;4.746;2022-08-20T10:59:06;7.88;;;1.73;;
37495;SDS011;23346;52.088;4.746;2022-08-20T11:01:32;10.43;;;1.45;;
37495;SDS011;23346;52.088;4.746;2022-08-20T11:03:58;8.68;;;1.30;;
37495;SDS011;23346;52.088;4.746;2022-08-20T11:06:24;7.53;;;1.17;;
37495;SDS011;23346;52.088;4.746;2022-08-20T11:09:02;6.85;;;1.25;;
37495;SDS011;23346;52.088;4.746;2022-08-20T11:11:32;7.03;;;1.35;;
37495;SDS011;23346;52.088;4.746;2022-08-20T11:13:58;7.15;;;1.50;;
37495;SDS011;23346;52.088;4.746;2022-08-20T11:16:28;6.18;;;1.40;;
37495;SDS011;23346;52.088;4.746;2022-08-20T11:19:03;10.48;;;1.50;;
37495;SDS011;23346;52.088;4.746;2022-08-20T11:21:44;12.40;;;1.70;;
37495;SDS011;23346;52.088;4.746;2022-08-20T11:26:49;8.77;;;1.40;;
37495;SDS011;23346;52.088;4.746;2022-08-20T11:29:17;10.05;;;1.48;;
37495;SDS011;23346;52.088;4.746;2022-08-20T11:31:46;5.88;;;1.23;;
37495;SDS011;23346;52.088;4.746;2022-08-20T11:34:12;8.95;;;1.05;;
37495;SDS011;23346;52.088;4.746;2022-08-20T11:36:38;6.30;;;1.40;;
37495;SDS011;23346;52.088;4.746;2022-08-20T11:39:04;11.02;;;1.33;;
37495;SDS011;23346;52.088;4.746;2022-08-20T11:41:30;8.43;;;1.35;;
37495;SDS011;23346;52.088;4.746;2022-08-20T11:43:56;7.97;;;1.15;;
37495;SDS011;23346;52.088;4.746;2022-08-20T11:46:22;8.57;;;1.55;;
37495;SDS011;23346;52.088;4.746;2022-08-20T11:48:48;11.38;;;1.33;;
37495;SDS011;23346;52.088;4.746;2022-08-20T11:51:14;9.00;;;1.40;;
37495;SDS011;23346;52.088;4.746;2022-08-20T11:53:40;8.75;;;1.10;;
37495;SDS011;23346;52.088;4.746;2022-08-20T11:56:06;6.10;;;1.40;;
37495;SDS011;23346;52.088;4.746;2022-08-20T11:58:32;12.95;;;1.48;;
37495;SDS011;23346;52.088;4.746;2022-08-20T12:00:58;6.43;;;1.55;;
37495;SDS011;23346;52.088;4.746;2022-08-20T12:03:24;7.80;;;1.52;;
37495;SDS011;23346;52.088;4.746;2022-08-20T12:05:50;8.25;;;1.30;;
37495;SDS011;23346;52.088;4.746;2022-08-20T12:08:16;9.52;;;1.20;;
37495;SDS011;23346;52.088;4.746;2022-08-20T12:10:42;9.35;;;1.33;;
37495;SDS011;23346;52.088;4.746;2022-08-20T12:13:08;7.28;;;1.35;;
37495;SDS011;23346;52.088;4.746;2022-08-20T12:15:35;3.78;;;0.88;;
37495;SDS011;23346;52.088;4.746;2022-08-20T12:18:05;7.57;;;1.20;;
37495;SDS011;23346;52.088;4.746;2022-08-20T12:20:31;8.38;;;1.38;;
37495;SDS011;23346;52.088;4.746;2022-08-20T12:22:57;10.90;;;1.55;;
37495;SDS011;23346;52.088;4.746;2022-08-20T12:25:24;6.97;;;1.10;;
37495;SDS011;23346;52.088;4.746;2022-08-20T12:27:50;8.48;;;1.50;;
37495;SDS011;23346;52.088;4.746;2022-08-20T12:30:18;12.07;;;1.40;;
37495;SDS011;23346;52.088;4.746;2022-08-20T12:32:44;10.68;;;1.30;;
37495;SDS011;23346;52.088;4.746;2022-08-20T12:35:11;11.02;;;1.45;;
37495;SDS011;23346;52.088;4.746;2022-08-20T12:37:37;7.22;;;1.80;;
37495;SDS011;23346;52.088;4.746;2022-08-20T12:40:05;9.13;;;1.20;;
37495;SDS011;23346;52.088;4.746;2022-08-20T12:42:31;7.18;;;1.35;;
37495;SDS011;23346;52.088;4.746;2022-08-20T12:44:57;9.18;;;1.65;;
37495;SDS011;23346;52.088;4.746;2022-08-20T12:47:25;8.55;;;1.38;;
37495;SDS011;23346;52.088;4.746;2022-08-20T12:49:53;9.32;;;1.40;;
37495;SDS011;23346;52.088;4.746;2022-08-20T12:52:20;8.57;;;1.55;;
37495;SDS011;23346;52.088;4.746;2022-08-20T12:54:47;7.50;;;1.83;;
37495;SDS011;23346;52.088;4.746;2022-08-20T12:57:35;12.13;;;1.55;;
37495;SDS011;23346;52.088;4.746;2022-08-20T13:00:00;7.47;;;1.58;;
37495;SDS011;23346;52.088;4.746;2022-08-20T13:02:27;8.50;;;2.00;;
37495;SDS011;23346;52.088;4.746;2022-08-20T13:04:53;7.32;;;1.10;;
37495;SDS011;23346;52.088;4.746;2022-08-20T13:07:19;7.38;;;1.48;;
37495;SDS011;23346;52.088;4.746;2022-08-20T13:09:45;9.20;;;1.55;;
37495;SDS011;23346;52.088;4.746;2022-08-20T13:12:11;10.98;;;1.80;;
37495;SDS011;23346;52.088;4.746;2022-08-20T13:14:38;10.10;;;1.63;;
37495;SDS011;23346;52.088;4.746;2022-08-20T13:17:05;8.93;;;1.25;;
37495;SDS011;23346;52.088;4.746;2022-08-20T13:19:31;7.68;;;1.60;;
37495;SDS011;23346;52.088;4.746;2022-08-20T13:21:58;9.52;;;1.25;;
37495;SDS011;23346;52.088;4.746;2022-08-20T13:24:24;6.22;;;1.05;;
37495;SDS011;23346;52.088;4.746;2022-08-20T13:26:50;8.48;;;1.60;;
37495;SDS011;23346;52.088;4.746;2022-08-20T13:29:17;5.05;;;1.25;;
37495;SDS011;23346;52.088;4.746;2022-08-20T13:31:43;9.10;;;1.60;;
37495;SDS011;23346;52.088;4.746;2022-08-20T13:34:09;5.55;;;1.27;;
37495;SDS011;23346;52.088;4.746;2022-08-20T13:36:35;5.38;;;1.05;;
37495;SDS011;23346;52.088;4.746;2022-08-20T13:39:02;8.55;;;1.48;;
37495;SDS011;23346;52.088;4.746;2022-08-20T13:41:29;4.05;;;1.33;;
37495;SDS011;23346;52.088;4.746;2022-08-20T13:43:55;7.38;;;1.42;;
37495;SDS011;23346;52.088;4.746;2022-08-20T13:46:21;8.85;;;2.40;;
37495;SDS011;23346;52.088;4.746;2022-08-20T13:48:47;9.63;;;1.50;;
37495;SDS011;23346;52.088;4.746;2022-08-20T13:51:13;6.95;;;1.63;;
37495;SDS011;23346;52.088;4.746;2022-08-20T13:53:39;7.20;;;1.45;;
37495;SDS011;23346;52.088;4.746;2022-08-20T13:56:05;4.30;;;1.20;;
37495;SDS011;23346;52.088;4.746;2022-08-20T13:58:31;7.68;;;1.30;;
37495;SDS011;23346;52.088;4.746;2022-08-20T14:00:57;6.50;;;1.48;;
37495;SDS011;23346;52.088;4.746;2022-08-20T14:03:23;7.25;;;1.27;;
37495;SDS011;23346;52.088;4.746;2022-08-20T14:05:49;5.25;;;1.27;;
37495;SDS011;23346;52.088;4.746;2022-08-20T14:08:16;6.43;;;1.13;;
37495;SDS011;23346;52.088;4.746;2022-08-20T14:10:43;9.45;;;1.20;;
37495;SDS011;23346;52.088;4.746;2022-08-20T14:13:10;7.70;;;1.35;;
37495;SDS011;23346;52.088;4.746;2022-08-20T14:15:36;4.68;;;1.27;;
37495;SDS011;23346;52.088;4.746;2022-08-20T14:18:03;6.70;;;1.38;;
37495;SDS011;23346;52.088;4.746;2022-08-20T14:20:30;4.07;;;1.00;;
37495;SDS011;23346;52.088;4.746;2022-08-20T14:22:57;10.20;;;2.03;;
37495;SDS011;23346;52.088;4.746;2022-08-20T14:25:24;6.05;;;1.10;;
37495;SDS011;23346;52.088;4.746;2022-08-20T14:27:50;6.43;;;1.63;;
37495;SDS011;23346;52.088;4.746;2022-08-20T14:30:18;8.23;;;1.30;;
37495;SDS011;23346;52.088;4.746;2022-08-20T14:32:44;7.18;;;1.15;;
37495;SDS011;23346;52.088;4.746;2022-08-20T14:35:10;7.40;;;1.27;;
37495;SDS011;23346;52.088;4.746;2022-08-20T14:37:38;5.45;;;1.33;;
37495;SDS011;23346;52.088;4.746;2022-08-20T14:40:05;4.28;;;1.23;;
37495;SDS011;23346;52.088;4.746;2022-08-20T14:42:31;7.75;;;1.52;;
37495;SDS011;23346;52.088;4.746;2022-08-20T14:44:57;9.25;;;1.30;;
37495;SDS011;23346;52.088;4.746;2022-08-20T14:47:33;7.55;;;1.45;;
37495;SDS011;23346;52.088;4.746;2022-08-20T14:50:00;11.23;;;1.40;;
37495;SDS011;23346;52.088;4.746;2022-08-20T14:52:28;6.28;;;1.65;;
37495;SDS011;23346;52.088;4.746;2022-08-20T14:54:54;4.18;;;1.08;;